createdAt,value
2019-04-11T00:00:59.657Z,1.43
2019-04-11T00:03:27.686Z,1.97
2019-04-11T00:05:55.560Z,2.53
2019-04-11T00:11:48.168Z,2.30
2019-04-11T00:14:16.503Z,1.57
2019-04-11T00:16:46.296Z,1.67
2019-04-11T00:19:14.088Z,2.50
2019-04-11T00:21:41.963Z,1.67
2019-04-11T00:24:10.470Z,2.17
2019-04-11T00:26:38.830Z,3.23
2019-04-11T00:29:06.987Z,2.77
2019-04-11T00:31:35.119Z,1.70
2019-04-11T00:34:03.024Z,2.30
2019-04-11T00:36:30.895Z,1.73
2019-04-11T00:38:59.349Z,3.07
2019-04-11T00:41:28.091Z,2.67
2019-04-11T00:43:56.767Z,2.70
2019-04-11T00:46:24.960Z,2.90
2019-04-11T00:48:54.388Z,1.80
2019-04-11T00:51:23.486Z,2.00
2019-04-11T00:53:52.114Z,2.33
2019-04-11T00:56:20.149Z,1.87
2019-04-11T00:58:48.063Z,2.50
2019-04-11T01:01:15.930Z,1.50
2019-04-11T01:03:43.899Z,2.97
2019-04-11T01:06:12.215Z,1.57
2019-04-11T01:08:40.282Z,1.50
2019-04-11T01:11:08.188Z,2.83
2019-04-11T01:13:44.375Z,2.30
2019-04-11T01:16:28.433Z,3.17
2019-04-11T01:18:56.545Z,2.47
2019-04-11T01:21:26.363Z,2.80
2019-04-11T01:23:55.243Z,2.87
2019-04-11T01:26:23.418Z,2.07
2019-04-11T01:28:52.421Z,2.27
2019-04-11T01:31:22.007Z,2.17
2019-04-11T01:33:49.912Z,2.60
2019-04-11T01:36:18.539Z,2.33
2019-04-11T01:38:50.754Z,2.53
2019-04-11T01:41:18.630Z,4.73
2019-04-11T01:56:53.707Z,2.40
2019-04-11T01:59:21.878Z,2.30
2019-04-11T02:02:09.551Z,2.33
2019-04-11T02:04:49.131Z,2.23
2019-04-11T02:07:17.030Z,2.27
2019-04-11T02:09:46.281Z,2.47
2019-04-11T02:12:14.431Z,1.63
2019-04-11T02:14:42.347Z,5.17
2019-04-11T02:17:10.454Z,1.90
2019-04-11T02:19:38.734Z,2.40
2019-04-11T02:22:24.518Z,2.20
2019-04-11T02:24:57.905Z,2.50
2019-04-11T02:27:27.834Z,2.20
2019-04-11T02:29:55.745Z,3.73
2019-04-11T02:32:25.513Z,1.80
2019-04-11T02:34:57.110Z,2.10
2019-04-11T02:37:24.609Z,2.70
2019-04-11T02:39:55.778Z,2.27
2019-04-11T02:42:25.393Z,4.60
2019-04-11T02:45:10.586Z,2.17
2019-04-11T02:47:27.708Z,2.40
2019-04-11T02:49:53.076Z,2.47
2019-04-11T02:52:22.610Z,2.73
2019-04-11T02:54:52.415Z,1.87
2019-04-11T02:57:21.701Z,3.03
2019-04-11T02:59:50.829Z,2.27
2019-04-11T03:02:19.681Z,2.20
2019-04-11T03:04:50.934Z,1.80
2019-04-11T03:07:20.449Z,2.20
2019-04-11T03:09:48.999Z,1.83
2019-04-11T03:12:19.083Z,1.90
2019-04-11T03:15:05.330Z,2.97
2019-04-11T03:17:23.202Z,1.90
2019-04-11T03:20:00.853Z,2.47
2019-04-11T03:22:18.083Z,1.70
2019-04-11T03:24:46.984Z,2.70
2019-04-11T03:27:15.427Z,2.00
2019-04-11T03:29:45.261Z,3.07
2019-04-11T03:33:07.963Z,2.13
2019-04-11T03:35:52.381Z,2.77
2019-04-11T03:37:38.015Z,2.40
2019-04-11T03:39:59.260Z,2.70
2019-04-11T03:42:29.954Z,2.53
2019-04-11T03:44:47.858Z,2.33
2019-04-11T03:47:29.175Z,3.57
2019-04-11T03:49:51.411Z,2.03
2019-04-11T03:52:14.992Z,2.10
2019-04-11T03:54:43.375Z,2.90
2019-04-11T03:57:13.420Z,3.53
2019-04-11T03:59:41.636Z,3.60
2019-04-11T04:02:12.041Z,3.57
2019-04-11T04:04:41.505Z,4.37
2019-04-11T04:07:12.336Z,4.30
2019-04-11T04:09:40.457Z,4.13
2019-04-11T04:12:11.069Z,6.10
2019-04-11T04:14:59.179Z,4.40
2019-04-11T04:17:47.664Z,5.67
2019-04-11T04:20:35.245Z,5.20
2019-04-11T04:23:19.072Z,3.50
2019-04-11T04:25:49.248Z,4.83
2019-04-11T04:28:18.920Z,6.03
2019-04-11T04:30:47.177Z,4.17
2019-04-11T04:33:17.080Z,4.13
2019-04-11T04:35:47.301Z,6.50
2019-04-11T04:38:15.896Z,6.93
2019-04-11T04:41:00.284Z,4.47
2019-04-11T04:43:16.532Z,3.60
2019-04-11T04:46:04.932Z,4.93
2019-04-11T04:48:18.299Z,3.37
2019-04-11T04:50:44.952Z,4.33
2019-04-11T04:53:15.869Z,4.47
2019-04-11T04:55:45.647Z,4.10
2019-04-11T04:58:15.665Z,3.30
2019-04-11T05:00:43.756Z,3.57
2019-04-11T05:03:13.399Z,3.27
2019-04-11T05:05:42.472Z,3.40
2019-04-11T05:08:11.066Z,3.37
2019-04-11T05:10:40.330Z,3.57
2019-04-11T05:13:09.776Z,3.10
2019-04-11T05:15:38.663Z,4.60
2019-04-11T05:18:08.697Z,3.07
2019-04-11T05:20:36.487Z,3.43
2019-04-11T05:23:04.460Z,3.90
2019-04-11T05:25:32.737Z,3.63
2019-04-11T05:28:00.646Z,11.07
2019-04-11T05:30:29.416Z,3.83
2019-04-11T05:32:57.769Z,5.53
2019-04-11T05:35:26.860Z,3.40
2019-04-11T05:37:55.759Z,3.53
2019-04-11T05:40:24.005Z,5.20
2019-04-11T05:42:54.155Z,3.43
2019-04-11T05:45:24.411Z,3.17
2019-04-11T05:47:54.918Z,2.87
2019-04-11T05:50:28.448Z,3.77
2019-04-11T05:53:01.241Z,2.40
2019-04-11T05:55:29.950Z,4.17
2019-04-11T05:57:58.939Z,2.87
2019-04-11T06:00:46.623Z,4.63
2019-04-11T06:03:15.509Z,2.63
2019-04-11T06:06:08.727Z,2.63
2019-04-11T06:08:37.796Z,2.97
2019-04-11T06:11:22.442Z,2.30
2019-04-11T06:14:20.749Z,2.47
2019-04-11T06:16:54.409Z,2.43
2019-04-11T06:19:52.006Z,2.47
2019-04-11T06:22:19.973Z,1.87
2019-04-11T06:25:16.671Z,1.50
2019-04-11T06:27:55.788Z,1.90
2019-04-11T06:30:42.305Z,1.70
2019-04-11T06:33:16.588Z,1.87
2019-04-11T06:36:09.646Z,2.43
2019-04-11T06:38:47.219Z,1.60
2019-04-11T06:41:24.882Z,1.30
2019-04-11T06:44:01.277Z,2.70
2019-04-11T06:46:55.848Z,2.17
2019-04-11T06:49:32.270Z,1.47
2019-04-11T06:52:02.268Z,1.90
2019-04-11T06:54:48.223Z,2.57
2019-04-11T06:57:19.476Z,1.73
2019-04-11T06:59:48.424Z,2.17
2019-04-11T07:02:21.071Z,2.33
2019-04-11T07:04:51.762Z,2.50
2019-04-11T07:07:20.992Z,2.00
2019-04-11T07:09:51.158Z,2.03
2019-04-11T07:12:47.683Z,2.17
2019-04-11T07:15:34.066Z,2.00
2019-04-11T07:18:20.567Z,1.67
2019-04-11T07:21:03.047Z,3.30
2019-04-11T07:23:49.389Z,1.33
2019-04-11T07:26:35.209Z,2.47
2019-04-11T07:29:23.729Z,2.57
2019-04-11T07:32:11.757Z,1.50
2019-04-11T07:34:57.909Z,1.60
2019-04-11T07:37:36.687Z,1.73
2019-04-11T07:40:27.267Z,1.80
2019-04-11T07:43:26.802Z,1.60
2019-04-11T07:46:17.077Z,1.63
2019-04-11T07:48:45.501Z,2.10
2019-04-11T07:51:38.864Z,1.93
2019-04-11T07:54:09.339Z,1.73
2019-04-11T07:56:56.958Z,2.57
2019-04-11T07:59:34.620Z,1.83
2019-04-11T08:02:23.921Z,2.03
2019-04-11T08:05:15.775Z,2.43
2019-04-11T08:07:59.662Z,2.17
2019-04-11T08:10:35.114Z,2.00
2019-04-11T08:13:07.335Z,1.53
2019-04-11T08:15:55.748Z,2.83
2019-04-11T08:18:55.417Z,1.47
2019-04-11T08:21:55.254Z,2.03
2019-04-11T08:24:30.076Z,1.60
2019-04-11T08:27:15.754Z,2.23
2019-04-11T08:29:44.375Z,1.73
2019-04-11T08:32:38.059Z,1.13
2019-04-11T08:35:26.269Z,2.73
2019-04-11T08:38:05.479Z,1.67
2019-04-11T08:40:38.340Z,1.33
2019-04-11T08:43:12.933Z,1.17
2019-04-11T08:45:46.462Z,1.87
2019-04-11T08:48:15.211Z,1.90
2019-04-11T08:50:46.986Z,1.80
2019-04-11T08:53:35.211Z,1.43
2019-04-11T08:56:03.953Z,1.40
2019-04-11T08:58:53.086Z,1.20
2019-04-11T09:01:22.206Z,2.03
2019-04-11T09:04:13.764Z,1.60
2019-04-11T09:06:42.993Z,1.63
2019-04-11T09:09:37.697Z,2.17
2019-04-11T09:12:10.025Z,1.03
2019-04-11T09:15:04.335Z,1.03
2019-04-11T09:18:02.142Z,1.50
2019-04-11T09:20:56.056Z,1.47
2019-04-11T09:23:25.927Z,1.17
2019-04-11T09:26:31.973Z,1.37
2019-04-11T09:29:01.839Z,0.90
2019-04-11T09:32:00.064Z,2.07
2019-04-11T09:34:46.143Z,2.37
2019-04-11T09:37:31.578Z,2.43
2019-04-11T09:40:07.837Z,1.90
2019-04-11T09:42:45.440Z,2.10
2019-04-11T09:45:52.424Z,2.93
2019-04-11T09:48:44.388Z,2.73
2019-04-11T09:51:35.872Z,3.90
2019-04-11T09:54:23.899Z,2.73
2019-04-11T09:57:24.723Z,3.33
2019-04-11T10:00:22.766Z,2.80
2019-04-11T10:03:28.888Z,2.63
2019-04-11T10:06:19.512Z,3.43
2019-04-11T10:08:55.945Z,3.07
2019-04-11T10:11:58.987Z,3.37
2019-04-11T10:14:29.426Z,2.93
2019-04-11T10:17:16.851Z,3.17
2019-04-11T10:19:48.344Z,3.57
2019-04-11T10:22:38.234Z,3.13
2019-04-11T10:25:41.096Z,3.43
2019-04-11T10:28:29.586Z,3.90
2019-04-11T10:31:10.645Z,3.73
2019-04-11T10:33:55.313Z,4.37
2019-04-11T10:36:29.368Z,3.47
2019-04-11T10:39:19.843Z,3.90
2019-04-11T10:41:50.585Z,4.10
2019-04-11T10:44:24.186Z,6.07
2019-04-11T10:46:59.861Z,5.23
2019-04-11T10:50:03.141Z,4.30
2019-04-11T10:52:34.815Z,3.90
2019-04-11T10:55:15.575Z,4.23
2019-04-11T10:57:46.682Z,5.57
2019-04-11T11:00:22.979Z,4.77
2019-04-11T11:03:16.511Z,4.60
2019-04-11T11:05:47.277Z,5.03
2019-04-11T11:08:53.402Z,5.33
2019-04-11T11:11:25.591Z,4.60
2019-04-11T11:14:12.919Z,4.70
2019-04-11T11:17:02.695Z,4.73
2019-04-11T11:19:59.287Z,4.63
2019-04-11T11:22:41.622Z,5.87
2019-04-11T11:25:29.003Z,5.03
2019-04-11T11:27:57.844Z,5.57
2019-04-11T11:30:44.701Z,7.23
2019-04-11T11:33:12.627Z,5.33
2019-04-11T11:36:06.979Z,5.93
2019-04-11T11:38:33.602Z,5.37
2019-04-11T11:41:36.507Z,5.50
2019-04-11T11:44:05.550Z,6.33
2019-04-11T11:46:55.602Z,6.70
2019-04-11T11:49:42.498Z,5.90
2019-04-11T11:52:15.371Z,6.00
2019-04-11T11:54:55.642Z,5.47
2019-04-11T11:57:42.708Z,6.00
2019-04-11T12:00:19.407Z,6.83
2019-04-11T12:03:15.462Z,6.40
2019-04-11T12:05:50.753Z,6.93
2019-04-11T12:08:36.966Z,6.97
2019-04-11T12:11:08.231Z,6.90
2019-04-11T12:13:59.928Z,7.13
2019-04-11T12:16:48.235Z,6.17
2019-04-11T12:19:52.637Z,7.47
2019-04-11T12:22:18.009Z,7.57
2019-04-11T12:25:07.152Z,8.07
2019-04-11T12:27:58.310Z,7.00
2019-04-11T12:30:57.950Z,8.30
2019-04-11T12:33:50.078Z,7.70
2019-04-11T12:36:30.685Z,8.40
2019-04-11T12:39:16.534Z,7.93
2019-04-11T12:41:55.655Z,9.10
2019-04-11T12:44:51.679Z,7.93
2019-04-11T12:47:38.719Z,9.77
2019-04-11T12:50:30.767Z,9.50
2019-04-11T12:53:24.725Z,9.23
2019-04-11T12:56:09.292Z,9.40
2019-04-11T12:59:06.005Z,8.83
2019-04-11T13:02:02.429Z,8.83
2019-04-11T13:04:34.990Z,9.47
2019-04-11T13:07:28.365Z,9.83
2019-04-11T13:10:27.819Z,9.90
2019-04-11T13:13:24.114Z,10.37
2019-04-11T13:16:20.627Z,10.13
2019-04-11T13:19:17.956Z,9.73
2019-04-11T13:21:52.096Z,9.80
2019-04-11T13:24:39.384Z,10.20
2019-04-11T13:27:21.949Z,10.93
2019-04-11T13:30:08.613Z,12.00
2019-04-11T13:33:01.742Z,12.63
2019-04-11T13:36:04.135Z,12.23
2019-04-11T13:38:38.370Z,12.00
2019-04-11T13:41:28.576Z,12.33
2019-04-11T13:44:09.705Z,13.03
2019-04-11T13:46:56.575Z,12.87
2019-04-11T13:49:42.698Z,13.30
2019-04-11T13:52:30.028Z,13.67
2019-04-11T13:55:27.680Z,11.83
2019-04-11T13:58:15.012Z,13.80
2019-04-11T14:01:02.447Z,13.40
2019-04-11T14:03:49.786Z,12.93
2019-04-11T14:06:25.044Z,14.17
2019-04-11T14:09:25.011Z,13.50
2019-04-11T14:11:54.650Z,13.07
2019-04-11T14:14:52.046Z,12.33
2019-04-11T14:17:23.683Z,13.33
2019-04-11T14:20:29.115Z,13.43
2019-04-11T14:23:13.632Z,13.57
2019-04-11T14:26:00.074Z,14.17
2019-04-11T14:28:59.463Z,13.20
2019-04-11T14:31:45.782Z,14.00
2019-04-11T14:34:29.575Z,13.47
2019-04-11T14:37:22.399Z,13.67
2019-04-11T14:39:52.532Z,14.57
2019-04-11T14:42:42.471Z,13.83
2019-04-11T14:45:36.709Z,15.03
2019-04-11T14:48:17.723Z,14.77
2019-04-11T14:51:03.613Z,13.97
2019-04-11T14:53:46.510Z,13.97
2019-04-11T14:56:14.252Z,16.83
2019-04-11T14:59:10.299Z,15.47
2019-04-11T15:01:38.370Z,16.63
2019-04-11T15:04:44.547Z,14.53
2019-04-11T15:07:12.840Z,15.07
2019-04-11T15:09:48.612Z,14.03
2019-04-11T15:12:18.921Z,16.77
2019-04-11T15:15:15.488Z,16.40
2019-04-11T15:17:43.787Z,15.90
2019-04-11T15:20:24.583Z,17.17
2019-04-11T15:23:00.206Z,16.43
2019-04-11T15:25:55.202Z,15.27
2019-04-11T15:28:45.557Z,15.07
2019-04-11T15:31:39.465Z,16.20
2019-04-11T15:34:24.892Z,14.10
2019-04-11T15:37:12.252Z,17.03
2019-04-11T15:39:57.925Z,15.23
2019-04-11T15:42:40.221Z,15.30
2019-04-11T15:45:15.573Z,14.90
2019-04-11T15:47:51.570Z,15.97
2019-04-11T15:50:50.816Z,15.23
2019-04-11T15:53:24.653Z,15.83
2019-04-11T15:56:26.854Z,14.63
2019-04-11T15:59:00.039Z,15.93
2019-04-11T16:01:53.380Z,17.03
2019-04-11T16:04:39.027Z,14.60
2019-04-11T16:07:29.055Z,14.37
2019-04-11T16:09:56.983Z,13.90
2019-04-11T16:12:33.707Z,14.33
2019-04-11T16:15:10.780Z,15.10
2019-04-11T16:18:15.603Z,14.47
2019-04-11T16:20:42.854Z,13.30
2019-04-11T16:23:35.937Z,15.03
2019-04-11T16:26:06.092Z,14.03
2019-04-11T16:28:53.371Z,13.87
2019-04-11T16:31:24.412Z,13.40
2019-04-11T16:34:00.019Z,13.67
2019-04-11T16:36:45.960Z,12.83
2019-04-11T16:39:45.003Z,13.17
2019-04-11T16:42:13.939Z,13.60
2019-04-11T16:45:16.219Z,12.57
2019-04-11T16:48:02.148Z,13.10
2019-04-11T16:50:31.122Z,12.70
2019-04-11T16:52:59.258Z,13.07
2019-04-11T16:55:27.315Z,12.83
2019-04-11T16:57:55.236Z,12.03
2019-04-11T17:00:23.150Z,14.13
2019-04-11T17:02:54.783Z,13.50
2019-04-11T17:05:20.771Z,12.83
2019-04-11T17:08:06.687Z,12.70
2019-04-11T17:10:52.311Z,12.10
2019-04-11T17:13:20.319Z,13.50
2019-04-11T17:15:48.191Z,12.43
2019-04-11T17:18:18.786Z,13.60
2019-04-11T17:20:45.785Z,12.73
2019-04-11T17:23:13.694Z,13.37
2019-04-11T17:25:41.570Z,13.23
2019-04-11T17:28:09.532Z,12.97
2019-04-11T17:30:37.584Z,13.13
2019-04-11T17:33:05.488Z,12.63
2019-04-11T17:35:33.455Z,12.77
2019-04-11T17:38:04.147Z,12.03
2019-04-11T17:40:31.041Z,11.93
2019-04-11T17:42:59.316Z,13.90
2019-04-11T17:45:27.186Z,12.97
2019-04-11T17:47:57.255Z,14.97
2019-04-11T17:50:24.999Z,11.30
2019-04-11T17:52:54.721Z,12.27
2019-04-11T17:55:24.014Z,11.60
2019-04-11T17:57:52.255Z,11.07
2019-04-11T18:00:41.076Z,12.63
2019-04-11T18:03:11.789Z,12.73
2019-04-11T18:05:38.723Z,11.87
2019-04-11T18:08:06.649Z,11.77
2019-04-11T18:10:34.528Z,12.03
2019-04-11T18:13:02.413Z,12.17
2019-04-11T18:15:31.181Z,11.27
2019-04-11T18:18:00.128Z,11.90
2019-04-11T18:20:28.091Z,12.17
2019-04-11T18:22:55.950Z,11.87
2019-04-11T18:25:23.963Z,11.60
2019-04-11T18:27:52.349Z,11.30
2019-04-11T18:30:20.966Z,12.00
2019-04-11T18:32:50.303Z,11.67
2019-04-11T18:35:18.218Z,12.87
2019-04-11T18:37:46.100Z,10.60
2019-04-11T18:40:17.010Z,12.50
2019-04-11T18:42:44.966Z,10.77
2019-04-11T18:45:14.103Z,11.87
2019-04-11T18:47:41.972Z,11.30
2019-04-11T18:50:10.787Z,10.50
2019-04-11T18:52:39.028Z,9.87
2019-04-11T18:55:07.852Z,10.90
2019-04-11T18:57:36.032Z,11.63
2019-04-11T19:00:08.114Z,11.03
2019-04-11T19:02:37.920Z,10.23
2019-04-11T19:05:06.594Z,10.43
2019-04-11T19:07:34.584Z,10.53
2019-04-11T19:10:02.585Z,10.40
2019-04-11T19:12:30.655Z,11.27
2019-04-11T19:14:58.683Z,10.27
2019-04-11T19:17:26.596Z,10.30
2019-04-11T19:19:54.494Z,10.43
2019-04-11T19:22:36.809Z,9.70
2019-04-11T19:24:52.087Z,10.43
2019-04-11T19:27:20.538Z,9.83
2019-04-11T19:29:48.662Z,10.63
2019-04-11T19:32:16.611Z,11.07
2019-04-11T19:34:44.644Z,10.67
2019-04-11T19:37:12.720Z,9.73
2019-04-11T19:39:45.167Z,10.43
2019-04-11T19:42:10.937Z,9.67
2019-04-11T19:44:38.839Z,10.07
2019-04-11T19:47:06.815Z,10.30
2019-04-11T19:49:34.746Z,9.97
2019-04-11T19:52:02.635Z,10.90
2019-04-11T19:54:32.760Z,10.40
2019-04-11T19:57:02.835Z,9.87
2019-04-11T19:59:31.187Z,9.87
2019-04-11T20:01:59.139Z,10.73
2019-04-11T20:04:30.598Z,10.63
2019-04-11T20:07:06.670Z,10.43
2019-04-11T20:09:34.796Z,10.10
2019-04-11T20:12:02.819Z,9.70
2019-04-11T20:14:34.128Z,9.33
2019-04-11T20:17:09.126Z,10.10
2019-04-11T20:19:36.520Z,10.13
2019-04-11T20:22:08.345Z,9.33
2019-04-11T20:24:34.231Z,9.17
2019-04-11T20:27:02.119Z,8.73
2019-04-11T20:29:30.083Z,9.03
2019-04-11T20:31:57.996Z,9.30
2019-04-11T20:34:27.591Z,9.27
2019-04-11T20:36:55.645Z,9.27
2019-04-11T20:39:23.567Z,9.47
2019-04-11T20:41:54.170Z,8.63
2019-04-11T20:44:22.177Z,8.40
2019-04-11T20:46:50.127Z,9.43
2019-04-11T20:49:18.035Z,8.37
2019-04-11T20:51:45.968Z,11.33
2019-04-11T20:54:13.876Z,8.67
2019-04-11T20:56:41.809Z,9.40
2019-04-11T20:59:10.900Z,8.37
2019-04-11T21:01:38.963Z,9.07
2019-04-11T21:04:06.909Z,8.47
2019-04-11T21:06:34.838Z,8.93
2019-04-11T21:09:04.635Z,9.47
2019-04-11T21:11:36.193Z,8.83
2019-04-11T21:14:02.263Z,13.30
2019-04-11T21:16:30.197Z,8.93
2019-04-11T21:18:58.118Z,8.77
2019-04-11T21:21:26.050Z,13.90
2019-04-11T21:23:53.991Z,10.00
2019-04-11T21:26:21.894Z,7.87
2019-04-11T21:28:50.130Z,8.20
2019-04-11T21:31:18.043Z,8.80
2019-04-11T21:33:45.924Z,8.07
2019-04-11T21:36:13.832Z,8.43
2019-04-11T21:38:41.703Z,9.30
2019-04-11T21:41:09.611Z,8.43
2019-04-11T21:43:37.485Z,9.37
2019-04-11T21:46:06.956Z,8.00
2019-04-11T21:48:36.061Z,8.17
2019-04-11T21:51:05.095Z,8.27
2019-04-11T21:53:36.800Z,9.67
2019-04-11T21:56:02.718Z,8.83
2019-04-11T21:58:30.587Z,11.87
2019-04-11T22:01:07.300Z,15.67
2019-04-11T22:03:35.350Z,8.17
2019-04-11T22:06:03.372Z,8.57
2019-04-11T22:08:31.994Z,8.87
2019-04-11T22:11:03.062Z,9.53
2019-04-11T22:13:30.751Z,8.50
2019-04-11T22:15:59.036Z,8.17
2019-04-11T22:18:27.063Z,8.60
2019-04-11T22:20:54.981Z,10.37
2019-04-11T22:23:22.846Z,7.87
2019-04-11T22:25:50.763Z,8.53
2019-04-11T22:28:18.646Z,8.40
2019-04-11T22:30:47.275Z,9.70
2019-04-11T22:33:46.632Z,7.87
2019-04-11T22:36:14.539Z,7.83
2019-04-11T22:38:42.756Z,8.40
2019-04-11T22:41:10.662Z,9.47
2019-04-11T22:43:38.700Z,8.37
2019-04-11T22:46:08.065Z,8.07
2019-04-11T22:48:36.851Z,9.77
2019-04-11T22:51:06.061Z,8.40
2019-04-11T22:53:33.956Z,8.37
2019-04-11T22:56:01.873Z,7.53
2019-04-11T22:58:29.783Z,10.13
2019-04-11T23:00:57.709Z,7.87
2019-04-11T23:03:32.686Z,9.33
2019-04-11T23:06:00.639Z,7.90
2019-04-11T23:08:28.507Z,8.83
2019-04-11T23:10:56.422Z,8.90
2019-04-11T23:13:24.292Z,9.93
2019-04-11T23:15:52.199Z,8.93
2019-04-11T23:18:20.083Z,8.37
2019-04-11T23:20:47.999Z,8.50
2019-04-11T23:23:15.856Z,8.13
2019-04-11T23:25:43.758Z,10.57
2019-04-11T23:28:15.634Z,8.10
2019-04-11T23:30:41.360Z,8.23
2019-04-11T23:33:09.231Z,7.67
2019-04-11T23:35:37.142Z,7.90
2019-04-11T23:38:05.999Z,8.87
2019-04-11T23:40:33.958Z,10.73
2019-04-11T23:43:01.835Z,8.70
2019-04-11T23:45:29.933Z,8.13
2019-04-11T23:47:57.818Z,7.93
2019-04-11T23:50:25.965Z,7.73
2019-04-11T23:52:56.871Z,8.60
2019-04-11T23:55:24.105Z,7.87
2019-04-11T23:57:52.018Z,11.80
